TimeEDT,TemperatureF,Dew PointF,Humidity,Sea Level PressureIn,VisibilityMPH,Wind Direction,Wind SpeedMPH,Gust SpeedMPH,PrecipitationIn,Events,Conditions,WindDirDegrees,DateUTC
12:54 AM,69.1,66.9,93,30.03,6.0,South,6.9,-,N/A,,Mostly Cloudy,190,2013-09-12 04:54:00
1:54 AM,69.1,66.9,93,30.02,4.0,SSW,8.1,-,N/A,,Clear,210,2013-09-12 05:54:00
2:54 AM,68.0,66.9,96,30.00,3.0,SSW,8.1,-,N/A,,Clear,200,2013-09-12 06:54:00
3:54 AM,66.9,66.0,97,29.99,4.0,SW,6.9,-,N/A,,Clear,230,2013-09-12 07:54:00
4:54 AM,66.9,66.0,97,29.99,4.0,SW,6.9,-,N/A,,Partly Cloudy,220,2013-09-12 08:54:00
5:54 AM,66.9,66.0,97,29.99,4.0,SSW,8.1,-,N/A,,Clear,200,2013-09-12 09:54:00
6:54 AM,66.9,66.0,97,29.99,2.5,SSW,6.9,-,N/A,,Scattered Clouds,210,2013-09-12 10:54:00
7:03 AM,66.2,66.2,100,30.03,2.5,SSW,8.1,-,N/A,,Mostly Cloudy,210,2013-09-12 11:03:00
7:54 AM,68.0,66.9,96,29.98,2.5,SW,8.1,-,N/A,,Mostly Cloudy,220,2013-09-12 11:54:00
8:54 AM,69.1,66.9,93,29.96,3.0,SW,9.2,-,N/A,,Mostly Cloudy,230,2013-09-12 12:54:00
9:24 AM,69.8,68.0,94,30.00,3.0,SW,9.2,-,N/A,,Scattered Clouds,230,2013-09-12 13:24:00
9:47 AM,71.6,68.0,88,30.00,4.0,WSW,6.9,-,N/A,,Mostly Cloudy,250,2013-09-12 13:47:00
9:54 AM,70.0,66.9,90,29.96,4.0,WSW,10.4,-,N/A,,Mostly Cloudy,250,2013-09-12 13:54:00
10:13 AM,71.6,68.0,88,29.99,4.0,WSW,11.5,-,N/A,,Scattered Clouds,250,2013-09-12 14:13:00
10:25 AM,71.6,68.0,88,29.99,5.0,WSW,9.2,-,N/A,,Mostly Cloudy,240,2013-09-12 14:25:00
10:34 AM,71.6,66.2,83,29.99,5.0,SW,11.5,-,N/A,,Haze,230,2013-09-12 14:34:00
10:54 AM,73.0,66.9,81,29.95,5.0,WSW,12.7,-,N/A,,Haze,250,2013-09-12 14:54:00
11:54 AM,75.0,66.0,73,29.93,6.0,WSW,10.4,-,N/A,,Haze,240,2013-09-12 15:54:00
12:54 PM,75.9,66.9,74,29.91,7.0,West,12.7,-,N/A,,Mostly Cloudy,260,2013-09-12 16:54:00
1:32 PM,71.6,64.4,78,29.97,7.0,West,25.3,35.7,N/A,Thunderstorm,Mostly Cloudy,280,2013-09-12 17:32:00
1:39 PM,66.2,60.8,83,29.97,10.0,WNW,21.9,39.1,N/A,Thunderstorm,Mostly Cloudy,300,2013-09-12 17:39:00
1:45 PM,66.2,60.8,83,29.98,10.0,WNW,16.1,34.5,N/A,,Overcast,290,2013-09-12 17:45:00
1:54 PM,64.9,62.1,90,29.95,7.0,West,13.8,23.0,0.01,Rain,Light Rain,280,2013-09-12 17:54:00
2:11 PM,62.6,60.8,94,29.96,2.5,West,10.4,-,0.06,Rain,Heavy Rain,280,2013-09-12 18:11:00
2:21 PM,64.4,62.6,94,29.95,7.0,West,10.4,-,0.07,Rain,Light Rain,270,2013-09-12 18:21:00
2:30 PM,64.4,62.6,94,29.95,10.0,West,9.2,-,0.07,Thunderstorm,Mostly Cloudy,270,2013-09-12 18:30:00
2:45 PM,66.2,62.6,88,29.93,10.0,SW,5.8,-,0.07,,Mostly Cloudy,230,2013-09-12 18:45:00
2:54 PM,64.9,61.0,87,29.89,10.0,WSW,6.9,-,0.07,,Scattered Clouds,250,2013-09-12 18:54:00
3:54 PM,66.0,64.0,93,29.85,10.0,WSW,8.1,-,0.01,,Mostly Cloudy,250,2013-09-12 19:54:00
4:03 PM,66.2,64.4,94,29.88,10.0,WSW,10.4,-,N/A,,Mostly Cloudy,240,2013-09-12 20:03:00
4:11 PM,66.2,64.4,94,29.88,10.0,West,6.9,-,N/A,,Mostly Cloudy,260,2013-09-12 20:11:00
4:34 PM,66.2,64.4,94,29.87,10.0,West,10.4,-,N/A,,Overcast,260,2013-09-12 20:34:00
4:44 PM,66.2,64.4,94,29.86,10.0,West,11.5,-,N/A,,Overcast,280,2013-09-12 20:44:00
4:54 PM,68.0,64.0,87,29.82,10.0,West,11.5,-,N/A,,Mostly Cloudy,280,2013-09-12 20:54:00
5:44 PM,66.2,64.4,94,29.84,10.0,West,13.8,-,N/A,,Overcast,260,2013-09-12 21:44:00
5:54 PM,66.9,64.0,90,29.81,10.0,West,8.1,-,N/A,,Mostly Cloudy,260,2013-09-12 21:54:00
6:28 PM,66.2,64.4,94,29.87,2.0,NW,12.7,-,0.06,Rain,Light Rain,310,2013-09-12 22:28:00
6:40 PM,64.4,60.8,88,29.87,7.0,West,6.9,-,0.07,Rain,Light Rain,270,2013-09-12 22:40:00
6:54 PM,64.0,62.1,93,29.84,10.0,WSW,9.2,-,0.07,Rain,Light Rain,250,2013-09-12 22:54:00
7:01 PM,64.4,62.6,94,29.87,10.0,West,6.9,-,0.00,Rain,Light Rain,260,2013-09-12 23:01:00
7:18 PM,62.6,62.6,100,29.87,10.0,West,9.2,-,0.01,Rain,Light Rain,270,2013-09-12 23:18:00
7:54 PM,63.0,62.1,97,29.83,9.0,West,8.1,-,0.01,,Overcast,280,2013-09-12 23:54:00
8:04 PM,62.6,62.6,100,29.86,7.0,West,8.1,-,N/A,,Overcast,280,2013-09-13 00:04:00
8:14 PM,64.4,62.6,94,29.87,6.0,West,6.9,-,N/A,,Overcast,280,2013-09-13 00:14:00
8:18 PM,64.4,62.6,94,29.87,6.0,West,6.9,-,N/A,,Overcast,270,2013-09-13 00:18:00
8:22 PM,64.4,62.6,94,29.87,6.0,West,8.1,-,N/A,,Overcast,280,2013-09-13 00:22:00
8:50 PM,64.4,62.6,94,29.87,9.0,WNW,9.2,-,N/A,,Overcast,290,2013-09-13 00:50:00
8:54 PM,64.0,62.1,93,29.83,9.0,WNW,9.2,-,0.00,Rain,Light Rain,290,2013-09-13 00:54:00
9:05 PM,64.4,62.6,94,29.87,8.0,NW,12.7,-,0.01,Rain,Light Rain,310,2013-09-13 01:05:00
9:13 PM,64.4,62.6,94,29.86,6.0,NW,10.4,-,0.02,Rain,Light Rain,310,2013-09-13 01:13:00
9:23 PM,62.6,62.6,100,29.86,9.0,NW,12.7,-,0.03,Rain,Light Rain,310,2013-09-13 01:23:00
9:32 PM,62.6,62.6,100,29.86,6.0,WNW,12.7,-,0.03,Rain,Light Rain,300,2013-09-13 01:32:00
9:46 PM,62.6,62.6,100,29.85,3.0,NW,17.3,21.9,0.10,Rain,Light Rain,310,2013-09-13 01:46:00
9:48 PM,62.6,60.8,94,29.85,4.0,NW,12.7,21.9,0.10,Rain,Light Rain,320,2013-09-13 01:48:00
9:54 PM,63.0,61.0,93,29.82,8.0,NW,13.8,21.9,0.10,Rain,Light Rain,320,2013-09-13 01:54:00
10:24 PM,60.8,59.0,94,29.86,10.0,NNW,8.1,-,0.00,,Overcast,330,2013-09-13 02:24:00
10:54 PM,60.1,57.9,93,29.82,10.0,NNW,6.9,-,0.00,,Overcast,340,2013-09-13 02:54:00
11:54 PM,57.0,55.9,96,29.82,7.0,Calm,Calm,-,N/A,,Partly Cloudy,0,2013-09-13 03:54:00